Time;durP1;ratioP1;P1;durP2;ratioP2;P2;SDS_P1;SDS_P2;PMS_P1;PMS_P2;Temp;Humidity;BMP_temperature;BMP_pressure;BME280_temperature;BME280_humidity;BME280_pressure;Samples;Min_cycle;Max_cycle;Signal;HPM_P1;HPM_P2
2023/04/13 00:00:31;;;;;;;3.22;3.13;;;;;;;5.38;100.00;99224.75;5994894;23;20563;-65
2023/04/13 00:02:59;;;;;;;3.50;3.40;;;;;;;5.41;100.00;99216.75;5999528;23;20104;-65
2023/04/13 00:05:26;;;;;;;3.50;3.30;;;;;;;5.98;100.00;99305.63;5990822;23;20039;-65
2023/04/13 00:07:54;;;;;;;3.60;3.40;;;;;;;5.67;100.00;99245.72;5995471;23;20090;-65
2023/04/13 00:10:21;;;;;;;3.40;3.30;;;;;;;5.64;100.00;99245.91;5981273;23;20137;-65
2023/04/13 00:12:48;;;;;;;13.80;3.42;;;;;;;5.84;100.00;99270.84;5981239;23;20043;-65
2023/04/13 00:15:18;;;;;;;3.58;3.35;;;;;;;6.07;100.00;99306.84;5998424;23;20045;-66
2023/04/13 00:17:46;;;;;;;3.50;3.30;;;;;;;5.91;100.00;99298.19;6000828;23;20023;-64
2023/04/13 00:20:13;;;;;;;3.30;3.20;;;;;;;6.12;100.00;99293.59;5997600;23;20036;-65
2023/04/13 00:22:41;;;;;;;3.28;3.17;;;;;;;6.20;100.00;99294.00;6000765;23;20031;-64
2023/04/13 00:25:13;;;;;;;3.55;3.42;;;;;;;5.75;100.00;99212.28;5999690;23;20118;-64
2023/04/13 00:27:41;;;;;;;3.60;3.40;;;;;;;6.22;100.00;99267.88;5980186;23;20031;-64
2023/04/13 00:30:12;;;;;;;3.58;3.38;;;;;;;6.37;100.00;99273.03;5996298;23;20238;-65
2023/04/13 00:32:41;;;;;;;3.30;3.20;;;;;;;6.44;100.00;99257.88;5994276;23;20027;-64
2023/04/13 00:35:09;;;;;;;3.40;3.30;;;;;;;6.50;100.00;99249.69;6006860;23;20106;-65
2023/04/13 00:37:37;;;;;;;3.40;3.30;;;;;;;6.58;100.00;99241.44;6000597;23;20592;-68
2023/04/13 00:40:06;;;;;;;3.83;3.60;;;;;;;6.63;100.00;99222.91;6003795;23;20023;-67
2023/04/13 00:42:33;;;;;;;3.30;3.20;;;;;;;6.70;99.89;99216.41;6002071;23;20019;-67
2023/04/13 00:44:59;;;;;;;3.55;3.45;;;;;;;6.75;98.36;99206.53;5991425;23;20547;-67
2023/04/13 00:47:35;;;;;;;3.20;3.10;;;;;;;6.76;97.25;99203.84;6000352;23;20086;-67
2023/04/13 00:50:05;;;;;;;3.30;3.20;;;;;;;6.75;96.20;99199.53;6000255;23;20644;-67
2023/04/13 00:52:37;;;;;;;3.47;3.38;;;;;;;6.83;96.76;99212.13;5994618;23;20034;-67
2023/04/13 00:55:05;;;;;;;4.10;3.20;;;;;;;6.26;97.66;99118.28;6000353;23;20026;-67
2023/04/13 00:57:32;;;;;;;3.30;3.20;;;;;;;6.77;98.85;99210.72;6003039;23;20038;-67
2023/04/13 01:00:05;;;;;;;3.55;3.45;;;;;;;6.79;99.63;99203.66;5999816;23;20035;-67
2023/04/13 01:02:31;;;;;;;3.60;3.40;;;;;;;6.73;99.34;99200.56;5991681;23;20596;-67
2023/04/13 01:04:58;;;;;;;5.90;3.72;;;;;;;6.34;98.39;99135.13;5993192;23;20031;-67
2023/04/13 01:08:07;;;;;;;3.20;3.10;;;;;;;5.60;98.38;99008.41;6002651;23;20652;-69
2023/04/13 01:15:11;;;;;;;3.15;3.05;;;;;;;6.76;98.13;99196.00;5932619;23;20033;-64
2023/04/13 01:17:42;;;;;;;2.90;2.80;;;;;;;6.44;97.32;99137.19;5926424;23;20400;-67
2023/04/13 01:20:31;;;;;;;3.13;3.03;;;;;;;6.49;97.03;99145.53;6007094;23;20057;-66
2023/04/13 01:23:06;;;;;;;3.30;3.20;;;;;;;6.82;97.11;99192.19;6005883;23;20046;-67
2023/04/13 01:26:09;;;;;;;3.17;3.08;;;;;;;6.81;97.42;99190.50;6005502;23;20022;-63
2023/04/13 01:28:39;;;;;;;3.50;3.30;;;;;;;6.59;97.65;99164.91;6005309;23;20039;-67
2023/04/13 01:31:13;;;;;;;3.40;3.30;;;;;;;6.51;98.49;99154.09;6004181;23;20026;-68
2023/04/13 01:33:41;;;;;;;3.10;3.00;;;;;;;6.71;100.00;99203.25;5983053;23;20031;-66
2023/04/13 01:36:11;;;;;;;3.30;3.20;;;;;;;6.28;100.00;99134.66;5977956;23;20027;-67
2023/04/13 01:38:38;;;;;;;3.50;3.35;;;;;;;6.61;99.78;99183.06;6005841;23;20014;-68
2023/04/13 01:41:12;;;;;;;3.60;3.42;;;;;;;6.48;98.96;99152.53;6003896;23;20030;-67
2023/04/13 01:43:40;;;;;;;3.30;3.20;;;;;;;6.36;100.00;99138.47;6021305;18;20029;-74
2023/04/13 01:46:10;;;;;;;3.25;3.15;;;;;;;6.38;98.30;99131.41;5985342;23;20108;-74
2023/04/13 01:48:44;;;;;;;3.40;3.30;;;;;;;6.77;97.82;99197.66;6026255;23;20026;-73
2023/04/13 01:51:21;;;;;;;8.05;3.60;;;;;;;6.83;98.65;99204.28;6010722;23;20161;-73
2023/04/13 01:53:58;;;;;;;3.22;3.13;;;;;;;6.79;97.54;99198.44;6013167;23;20038;-72
2023/04/13 01:56:26;;;;;;;3.40;3.30;;;;;;;6.69;98.12;99184.25;6021174;23;20034;-72
2023/04/13 01:58:56;;;;;;;3.95;3.65;;;;;;;6.36;97.99;99128.03;6017918;23;20030;-73
2023/04/13 02:01:24;;;;;;;3.33;3.22;;;;;;;5.77;97.88;99033.44;6019046;23;21535;-73
2023/04/13 02:03:51;;;;;;;3.78;3.47;;;;;;;6.07;97.96;99082.06;6020991;23;20039;-73
2023/04/13 02:06:18;;;;;;;3.25;3.15;;;;;;;6.48;98.41;99151.69;6019754;23;20026;-74
2023/04/13 02:08:44;;;;;;;3.30;3.20;;;;;;;6.79;97.99;99193.22;6010371;23;20035;-75
2023/04/13 02:11:11;;;;;;;3.30;3.20;;;;;;;6.81;98.09;99195.72;6022165;23;20047;-74
2023/04/13 02:13:38;;;;;;;3.65;3.50;;;;;;;6.74;97.27;99181.41;5986977;23;20023;-75
2023/04/13 02:16:08;;;;;;;3.42;3.33;;;;;;;6.50;96.85;99147.22;6020954;23;20524;-72
2023/04/13 02:18:35;;;;;;;3.40;3.30;;;;;;;6.63;97.85;99179.44;6016803;23;20386;-74
2023/04/13 02:21:07;;;;;;;3.40;3.30;;;;;;;6.84;97.79;99194.72;6010577;23;20103;-74
2023/04/13 02:23:38;;;;;;;3.45;3.25;;;;;;;6.80;96.62;99196.66;6010768;23;20052;-74
2023/04/13 02:26:08;;;;;;;4.22;3.55;;;;;;;6.85;96.95;99199.81;6018542;23;20031;-74
2023/04/13 02:28:35;;;;;;;3.30;3.20;;;;;;;6.86;96.91;99203.28;6002604;23;20563;-73
2023/04/13 02:31:02;;;;;;;3.63;3.53;;;;;;;6.86;98.66;99209.34;6023225;23;20018;-74
2023/04/13 02:33:31;;;;;;;3.60;3.50;;;;;;;6.70;97.33;99174.69;6016553;23;20364;-74
2023/04/13 02:36:00;;;;;;;3.42;3.33;;;;;;;6.92;96.80;99208.13;6020597;23;20038;-74
2023/04/13 02:38:27;;;;;;;3.50;3.40;;;;;;;6.83;95.52;99175.59;6024330;23;20030;-73
2023/04/13 02:40:55;;;;;;;3.35;3.25;;;;;;;6.01;94.48;99027.75;6013082;23;20652;-74
2023/04/13 02:43:21;;;;;;;3.85;3.30;;;;;;;6.76;94.86;99159.50;6031489;23;20030;-73
2023/04/13 02:45:48;;;;;;;3.20;3.10;;;;;;;7.01;95.98;99196.28;6042767;23;20041;-72
2023/04/13 02:48:15;;;;;;;3.40;3.20;;;;;;;6.80;96.18;99168.00;6017381;23;20043;-75
2023/04/13 02:50:42;;;;;;;3.65;3.45;;;;;;;7.03;96.15;99200.47;6022088;23;20094;-72
2023/04/13 02:53:08;;;;;;;3.67;3.53;;;;;;;7.01;95.75;99204.94;6026589;23;20069;-72
2023/04/13 02:55:35;;;;;;;7.63;3.45;;;;;;;6.85;95.44;99196.38;6031653;23;20513;-72
2023/04/13 02:58:03;;;;;;;3.30;3.20;;;;;;;7.03;94.87;99204.84;6024001;23;20031;-74
2023/04/13 03:00:31;;;;;;;3.70;3.60;;;;;;;6.85;95.91;99170.31;6020746;23;20097;-74
2023/04/13 03:02:58;;;;;;;3.92;3.50;;;;;;;6.50;94.18;99119.41;6020168;23;20023;-73
2023/04/13 03:05:25;;;;;;;3.60;3.40;;;;;;;6.92;94.63;99177.66;6023626;23;20018;-73
2023/04/13 03:07:51;;;;;;;3.35;3.25;;;;;;;7.02;93.48;99182.31;6026217;23;20034;-75
2023/04/13 03:10:18;;;;;;;3.28;3.17;;;;;;;6.84;94.42;99163.44;6016597;23;20675;-73
2023/04/13 03:12:44;;;;;;;3.40;3.30;;;;;;;6.67;93.36;99133.16;6028426;23;20042;-73
2023/04/13 06:29:06;;;;;;;4.70;4.03;;;;;;;7.24;100.00;99554.97;7889481;17;19990;-70
2023/04/13 06:31:32;;;;;;;4.00;3.80;;;;;;;7.12;100.00;99501.69;7755971;18;19998;-71
2023/04/13 06:33:59;;;;;;;4.05;3.78;;;;;;;7.27;100.00;99513.00;7756166;18;20653;-73
2023/04/13 06:36:25;;;;;;;4.13;3.92;;;;;;;7.24;100.00;99487.13;7753378;18;20359;-72
2023/04/13 06:38:53;;;;;;;5.55;3.85;;;;;;;7.30;99.71;99476.31;7756006;18;20028;-71
2023/04/13 06:41:19;;;;;;;4.80;4.50;;;;;;;8.07;99.20;99569.22;7758495;18;20022;-72
2023/04/13 06:43:46;;;;;;;3.90;3.70;;;;;;;7.80;97.67;99488.16;7755843;18;20001;-72
2023/04/13 06:46:13;;;;;;;4.20;4.00;;;;;;;8.23;96.23;99558.69;7756356;18;20065;-71
2023/04/13 06:48:40;;;;;;;4.38;4.18;;;;;;;8.17;94.95;99525.09;7754414;18;20078;-72
2023/04/13 06:51:06;;;;;;;4.47;4.18;;;;;;;8.34;94.01;99534.53;7756335;18;20415;-72
2023/04/13 06:53:33;;;;;;;4.20;4.00;;;;;;;8.64;93.80;99557.09;7753728;18;20018;-71
2023/04/13 06:55:59;;;;;;;4.40;4.20;;;;;;;8.82;92.43;99555.09;7755801;18;20537;-72
2023/04/13 06:58:26;;;;;;;4.68;4.38;;;;;;;8.26;90.76;99461.81;7756948;18;20005;-73
2023/04/13 07:00:52;;;;;;;4.45;3.80;;;;;;;8.50;89.87;99479.50;7755223;18;20010;-73
2023/04/13 07:03:19;;;;;;;4.20;4.00;;;;;;;8.99;88.93;99545.25;7754657;18;19999;-72
2023/04/13 07:05:45;;;;;;;4.45;4.25;;;;;;;9.02;88.56;99520.69;7755377;18;19998;-71
2023/04/13 07:08:12;;;;;;;4.10;3.90;;;;;;;9.24;86.69;99524.50;7756181;18;20004;-72
2023/04/13 07:10:39;;;;;;;4.80;4.53;;;;;;;9.37;85.65;99528.00;7750743;18;20022;-72
2023/04/13 07:13:06;;;;;;;4.30;4.00;;;;;;;8.49;85.57;99396.81;7741719;18;19999;-71
2023/04/13 07:15:36;;;;;;;4.00;3.80;;;;;;;9.76;85.16;99545.47;7744948;18;20006;-73
2023/04/13 07:18:03;;;;;;;4.40;4.20;;;;;;;9.67;83.72;99521.66;7774244;18;19993;-72
2023/04/13 07:20:29;;;;;;;4.40;4.20;;;;;;;9.03;82.51;99416.84;7743786;18;20014;-71
2023/04/13 07:22:56;;;;;;;4.25;4.05;;;;;;;9.28;82.44;99487.56;7798765;18;20017;-72
2023/04/13 07:25:22;;;;;;;5.15;4.88;;;;;;;9.18;83.31;99505.66;7751272;18;19998;-72
2023/04/13 07:27:49;;;;;;;5.03;4.63;;;;;;;9.04;84.57;99504.84;7795170;18;20282;-72
2023/04/13 07:30:16;;;;;;;4.25;4.05;;;;;;;8.59;85.92;99478.94;7782068;18;20031;-71
2023/04/13 07:32:42;;;;;;;4.75;4.35;;;;;;;8.67;86.60;99512.47;7839123;18;20524;-71
2023/04/13 07:35:09;;;;;;;4.38;4.18;;;;;;;8.67;87.63;99513.28;7793194;18;20394;-71
2023/04/13 07:37:35;;;;;;;4.85;4.60;;;;;;;8.88;87.76;99549.47;7838876;18;20552;-71
2023/04/13 07:40:03;;;;;;;4.40;4.20;;;;;;;8.53;87.14;99503.69;7790424;18;19997;-71
2023/04/13 07:42:29;;;;;;;4.10;3.90;;;;;;;8.52;88.63;99509.03;7837633;18;20500;-72
2023/04/13 07:44:56;;;;;;;4.00;3.80;;;;;;;8.89;88.73;99587.81;7790727;18;20074;-71
2023/04/13 07:47:22;;;;;;;4.10;3.90;;;;;;;7.82;88.90;99409.69;7791187;18;19994;-72
2023/04/13 07:49:49;;;;;;;4.00;3.80;;;;;;;8.71;88.66;99555.78;7790359;18;20624;-72
2023/04/13 07:52:15;;;;;;;4.85;4.40;;;;;;;8.73;89.26;99560.00;7792434;18;20002;-72
2023/04/13 07:54:42;;;;;;;4.07;3.88;;;;;;;8.68;89.96;99558.59;7791775;18;20001;-72
2023/04/13 07:57:08;;;;;;;5.00;4.70;;;;;;;9.01;89.13;99587.03;7792983;18;20500;-72
2023/04/13 07:59:35;;;;;;;3.88;3.70;;;;;;;8.02;88.86;99419.75;7752012;18;20014;-72
2023/04/13 08:02:01;;;;;;;4.10;3.90;;;;;;;8.67;88.07;99523.75;7791138;18;20587;-73
2023/04/13 08:04:28;;;;;;;4.55;4.25;;;;;;;9.03;87.97;99598.25;7751857;18;20005;-71
2023/04/13 08:06:54;;;;;;;6.75;5.50;;;;;;;8.95;88.24;99603.94;7793750;18;20014;-71
2023/04/13 08:09:21;;;;;;;4.80;4.50;;;;;;;8.93;88.90;99597.97;7750798;18;20005;-71
2023/04/13 08:11:48;;;;;;;4.80;4.32;;;;;;;8.82;88.74;99569.06;7793553;18;20613;-71
2023/04/13 08:14:15;;;;;;;4.93;4.60;;;;;;;8.98;87.73;99580.22;7792490;18;20644;-72
2023/04/13 08:16:42;;;;;;;5.40;5.10;;;;;;;8.69;87.35;99513.19;7751810;18;20021;-72
2023/04/13 08:19:08;;;;;;;4.53;4.15;;;;;;;8.81;86.53;99535.13;7792073;18;20004;-70
2023/04/13 08:21:37;;;;;;;5.10;4.63;;;;;;;9.29;86.35;99593.13;7788264;18;20013;-70
2023/04/13 08:24:04;;;;;;;4.57;4.18;;;;;;;8.89;85.98;99525.84;7791427;18;20009;-71
2023/04/13 08:26:30;;;;;;;4.47;4.22;;;;;;;9.57;85.02;99600.00;7794434;18;19990;-70
2023/04/13 08:28:57;;;;;;;5.68;5.20;;;;;;;9.40;84.77;99572.28;7792290;18;20060;-71
2023/04/13 08:31:24;;;;;;;4.90;4.60;;;;;;;9.43;83.97;99577.34;7751208;18;20574;-73
2023/04/13 08:33:51;;;;;;;8.93;5.05;;;;;;;9.43;84.87;99577.34;7791232;18;20056;-71
2023/04/13 08:36:17;;;;;;;6.93;5.45;;;;;;;9.79;85.15;99634.31;7752378;18;20004;-71
2023/04/13 08:38:44;;;;;;;4.07;3.88;;;;;;;9.08;84.12;99541.22;7791984;18;20001;-71
2023/04/13 08:41:10;;;;;;;4.43;4.10;;;;;;;9.58;84.40;99607.78;7793868;18;20025;-71
2023/04/13 08:43:37;;;;;;;4.68;4.47;;;;;;;9.27;84.36;99589.75;7751413;18;20010;-71
2023/04/13 08:46:05;;;;;;;8.73;5.07;;;;;;;9.36;84.94;99602.25;7795075;18;20059;-70
2023/04/13 08:48:41;;;;;;;6.82;5.00;;;;;;;9.49;85.87;99623.25;7792792;18;19997;-69
2023/04/13 08:51:20;;;;;;;8.77;6.03;;;;;;;9.51;84.68;99619.59;7757573;18;20422;-70
2023/04/13 08:53:47;;;;;;;6.90;5.93;;;;;;;9.53;86.46;99649.13;7791157;18;20402;-70
2023/04/13 08:56:14;;;;;;;6.88;4.93;;;;;;;9.24;85.24;99598.66;7794595;18;20026;-70
2023/04/13 08:58:42;;;;;;;29.10;5.70;;;;;;;9.12;86.06;99581.09;7792415;18;19998;-70
2023/04/13 09:01:14;;;;;;;6.18;5.55;;;;;;;9.16;87.61;99612.22;7794795;18;20002;-71
2023/04/13 09:03:53;;;;;;;4.82;4.53;;;;;;;9.10;90.12;99640.56;7752815;18;20434;-71
2023/04/13 09:06:27;;;;;;;5.43;4.93;;;;;;;9.15;92.43;99685.63;7794808;18;20573;-69
2023/04/13 09:08:55;;;;;;;4.50;4.20;;;;;;;8.66;91.94;99603.16;7793843;18;20017;-70
2023/04/13 09:11:23;;;;;;;4.88;4.57;;;;;;;8.92;93.46;99685.28;7794242;18;20002;-70
2023/04/13 09:13:51;;;;;;;6.10;4.20;;;;;;;9.14;95.33;99725.81;7793793;18;20473;-69
2023/04/13 09:16:18;;;;;;;4.65;4.38;;;;;;;9.15;96.00;99736.19;7794459;18;20006;-72
2023/04/13 09:18:52;;;;;;;4.75;4.35;;;;;;;8.96;95.79;99696.38;7798571;18;20001;-69
2023/04/13 09:21:19;;;;;;;4.30;4.10;;;;;;;9.05;95.33;99714.13;7797491;18;20002;-70
2023/04/13 09:23:56;;;;;;;4.32;4.13;;;;;;;9.35;96.11;99726.25;7753492;18;19998;-69
2023/04/13 09:26:23;;;;;;;4.70;4.43;;;;;;;9.17;93.96;99695.03;7795528;18;20046;-71
2023/04/13 09:28:55;;;;;;;4.15;3.95;;;;;;;9.72;93.90;99756.22;7794735;18;19993;-69
2023/04/13 09:31:22;;;;;;;4.32;4.07;;;;;;;9.79;93.58;99767.13;7752733;18;20052;-70
2023/04/13 09:33:52;;;;;;;4.75;4.50;;;;;;;9.91;92.09;99745.38;7751797;18;20198;-70
2023/04/13 09:36:20;;;;;;;5.22;4.82;;;;;;;8.96;89.11;99583.84;7793421;18;20426;-69
2023/04/13 09:38:52;;;;;;;4.70;4.40;;;;;;;10.15;88.21;99735.06;7792367;18;19997;-70
2023/04/13 09:41:45;;;;;;;4.40;4.20;;;;;;;10.23;87.82;99729.31;7794627;18;19998;-70
2023/04/13 09:44:16;;;;;;;;;;;;;;;10.87;84.61;99737.28;7793766;18;19998;-70
2023/04/13 09:46:57;;;;;;;4.75;4.45;;;;;;;11.30;82.02;99704.53;7795606;18;19901;-70
2023/04/13 09:49:25;;;;;;;5.88;4.80;;;;;;;11.46;76.99;99635.97;7754430;18;20006;-70
2023/04/13 09:51:53;;;;;;;4.53;4.22;;;;;;;11.62;74.62;99614.69;7753646;18;20005;-71
2023/04/13 09:54:20;;;;;;;5.47;5.00;;;;;;;11.96;74.00;99628.81;7752567;18;20082;-72
2023/04/13 09:56:53;;;;;;;5.00;4.70;;;;;;;11.58;73.23;99559.72;7794798;18;20002;-72
2023/04/13 09:59:24;;;;;;;6.60;4.88;;;;;;;11.86;72.16;99559.44;7792390;18;20026;-71
2023/04/13 10:01:51;;;;;;;18.05;4.65;;;;;;;12.52;68.42;99544.69;7798364;18;20532;-73
2023/04/13 10:04:18;;;;;;;5.65;5.15;;;;;;;12.13;66.11;99398.75;7759372;18;19994;-71
2023/04/13 10:06:47;;;;;;;4.93;4.68;;;;;;;12.13;66.70;99425.03;7794190;18;20074;-70
2023/04/13 10:09:14;;;;;;;5.50;5.10;;;;;;;11.94;66.55;99412.50;7785272;18;20061;-72
2023/04/13 10:11:45;;;;;;;5.32;5.03;;;;;;;11.85;65.90;99395.63;7791248;18;20078;-72
2023/04/13 10:14:24;;;;;;;5.93;4.95;;;;;;;12.00;66.21;99432.22;7787803;18;20002;-71
2023/04/13 10:17:18;;;;;;;5.43;5.05;;;;;;;12.02;66.30;99448.69;7790463;18;19998;-70
2023/04/13 10:19:50;;;;;;;8.18;6.25;;;;;;;12.17;65.93;99435.19;7747254;18;20010;-72
2023/04/13 10:22:19;;;;;;;5.05;4.70;;;;;;;12.45;65.26;99427.72;7749966;18;20004;-72
2023/04/13 10:24:46;;;;;;;9.38;4.88;;;;;;;12.35;63.93;99377.66;7787335;18;20006;-71
2023/04/13 10:27:20;;;;;;;4.97;4.60;;;;;;;12.20;63.44;99354.38;7790586;18;20006;-71
2023/04/13 10:29:47;;;;;;;5.60;5.30;;;;;;;11.98;63.54;99327.97;7789142;18;20002;-70
2023/04/13 10:32:24;;;;;;;5.88;5.03;;;;;;;11.96;63.11;99340.41;7791177;18;19998;-70
2023/04/13 10:34:52;;;;;;;4.95;4.68;;;;;;;11.15;64.85;99271.44;7790067;18;20014;-72
2023/04/13 10:37:21;;;;;;;5.20;4.80;;;;;;;11.71;65.56;99409.84;7750015;18;20019;-72
2023/04/13 10:39:59;;;;;;;5.07;4.53;;;;;;;11.60;64.84;99380.09;7788569;18;20032;-71
2023/04/13 10:42:26;;;;;;;5.13;4.63;;;;;;;11.35;66.04;99395.94;7789583;18;20057;-71
2023/04/13 10:44:53;;;;;;;4.40;4.20;;;;;;;10.82;65.70;99335.19;7747867;18;20584;-70
2023/04/13 10:47:21;;;;;;;5.03;4.55;;;;;;;10.49;67.69;99393.66;7792216;18;20014;-70
2023/04/13 10:49:50;;;;;;;4.95;4.65;;;;;;;10.76;68.50;99420.50;7790627;18;20005;-70
2023/04/13 10:52:17;;;;;;;12.82;4.90;;;;;;;10.72;67.78;99400.69;7789809;18;19994;-70
2023/04/13 10:54:43;;;;;;;5.18;4.88;;;;;;;11.18;68.15;99452.38;7789924;18;19994;-71
2023/04/13 10:57:11;;;;;;;4.70;4.50;;;;;;;11.72;67.05;99479.00;7792006;18;19998;-71
2023/04/13 11:00:09;;;;;;;4.70;4.50;;;;;;;12.08;65.49;99458.75;7790484;18;20064;-72
2023/04/13 11:02:35;;;;;;;5.95;4.57;;;;;;;12.02;64.75;99404.00;7790925;18;20080;-69
2023/04/13 11:05:02;;;;;;;4.97;4.68;;;;;;;11.75;63.38;99347.38;7789065;18;20023;-71
2023/04/13 11:07:30;;;;;;;4.97;4.68;;;;;;;11.92;66.35;99462.56;7798442;18;20018;-71
2023/04/13 11:10:01;;;;;;;5.20;4.80;;;;;;;11.27;67.11;99426.38;7790067;18;20001;-70
2023/04/13 11:12:29;;;;;;;5.03;4.82;;;;;;;10.70;67.59;99346.63;7791989;18;19995;-71
2023/04/13 11:14:55;;;;;;;10.98;5.35;;;;;;;11.60;67.81;99470.25;7790748;18;20006;-70
2023/04/13 11:17:22;;;;;;;6.00;4.90;;;;;;;11.93;67.54;99508.94;7792100;18;20048;-71
2023/04/13 11:19:51;;;;;;;10.32;4.80;;;;;;;11.68;64.65;99375.06;7789042;18;20029;-71
2023/04/13 11:22:23;;;;;;;5.30;5.00;;;;;;;11.79;65.66;99419.75;7750027;18;20005;-71
2023/04/13 11:24:50;;;;;;;5.57;5.27;;;;;;;12.23;64.45;99454.06;7746761;18;20046;-71
2023/04/13 11:27:20;;;;;;;7.38;4.75;;;;;;;12.42;61.77;99359.56;7792188;18;20033;-70
2023/04/13 11:29:57;;;;;;;5.03;4.68;;;;;;;12.79;60.76;99372.34;7789106;18;20015;-70
2023/04/13 11:32:24;;;;;;;5.22;4.93;;;;;;;12.64;60.82;99318.31;7790125;18;20009;-69
2023/04/13 11:34:51;;;;;;;5.95;5.38;;;;;;;12.47;61.30;99340.75;7790678;18;20032;-70
2023/04/13 11:37:18;;;;;;;6.47;5.18;;;;;;;11.84;62.30;99304.56;7792699;18;20017;-70
2023/04/13 11:39:45;;;;;;;5.40;4.85;;;;;;;11.74;63.95;99359.66;7790087;18;20009;-70
2023/04/13 11:42:12;;;;;;;6.75;5.25;;;;;;;11.66;63.68;99345.44;7750696;18;19994;-70
2023/04/13 11:44:38;;;;;;;4.70;4.50;;;;;;;11.76;63.58;99376.13;7750285;18;20001;-70
2023/04/13 11:47:07;;;;;;;5.35;4.70;;;;;;;11.76;63.65;99378.75;7792090;18;19997;-69
2023/04/13 11:49:34;;;;;;;5.15;4.75;;;;;;;11.88;62.75;99366.44;7749190;18;20002;-70
2023/04/13 11:52:01;;;;;;;8.75;4.80;;;;;;;11.51;62.69;99290.53;7790984;18;20006;-70
2023/04/13 11:54:29;;;;;;;5.45;4.88;;;;;;;11.56;63.16;99361.09;7788457;18;20002;-70
2023/04/13 11:56:56;;;;;;;5.40;4.90;;;;;;;11.68;62.56;99330.41;7791240;18;20005;-73
2023/04/13 11:59:23;;;;;;;10.27;5.20;;;;;;;11.68;62.40;99320.72;7790722;18;20053;-71
2023/04/13 12:01:50;;;;;;;13.43;4.82;;;;;;;12.09;61.82;99360.50;7749212;18;20002;-71
2023/04/13 12:04:35;;;;;;;5.45;4.95;;;;;;;12.25;61.00;99339.03;7791084;18;20480;-72
2023/04/13 12:07:09;;;;;;;8.80;5.43;;;;;;;12.56;60.65;99350.53;7791939;18;19994;-70
2023/04/13 12:09:41;;;;;;;6.18;5.00;;;;;;;12.84;60.27;99351.72;7789309;18;19994;-73
2023/04/13 12:12:18;;;;;;;4.88;4.47;;;;;;;13.14;59.00;99332.50;7790785;18;20069;-71
2023/04/13 12:14:52;;;;;;;6.43;4.85;;;;;;;13.06;58.30;99273.56;7790319;18;20503;-72
2023/04/13 12:17:38;;;;;;;15.35;5.68;;;;;;;13.41;57.16;99267.91;7756242;18;20060;-72
2023/04/13 12:20:15;;;;;;;8.48;4.93;;;;;;;13.16;56.72;99219.94;7788513;18;20001;-71
2023/04/13 12:22:41;;;;;;;4.93;4.63;;;;;;;13.57;57.15;99286.69;7837570;18;20027;-72
2023/04/13 12:25:22;;;;;;;5.70;5.32;;;;;;;13.71;55.43;99216.94;7750832;18;20025;-73
2023/04/13 12:27:51;;;;;;;5.45;5.05;;;;;;;13.57;54.19;99168.09;7837727;18;20004;-71
2023/04/13 12:30:21;;;;;;;6.55;5.60;;;;;;;13.73;54.15;99195.69;7748732;18;20118;-71
2023/04/13 12:32:51;;;;;;;5.43;4.93;;;;;;;13.65;54.71;99185.00;7795504;18;19993;-72
2023/04/13 12:35:18;;;;;;;5.60;5.28;;;;;;;13.89;54.34;99219.75;7789743;18;20005;-70
2023/04/13 12:37:46;;;;;;;5.15;4.75;;;;;;;13.84;53.01;99142.00;7835710;18;20055;-72
2023/04/13 12:40:14;;;;;;;4.95;4.65;;;;;;;13.30;52.17;99057.22;7789573;18;20009;-71
2023/04/13 12:42:47;;;;;;;5.75;4.93;;;;;;;13.85;52.86;99175.31;7837210;18;20013;-70
2023/04/13 12:45:15;;;;;;;5.78;4.90;;;;;;;14.64;52.50;99264.88;7791549;18;20061;-70
2023/04/13 12:47:41;;;;;;;6.80;4.85;;;;;;;14.23;51.88;99124.34;7837745;18;20022;-70
2023/04/13 12:50:10;;;;;;;4.95;4.55;;;;;;;14.00;48.70;98909.34;7789277;18;20012;-70
2023/04/13 12:52:40;;;;;;;5.43;5.13;;;;;;;14.85;50.00;99145.81;7836802;18;20002;-70
2023/04/13 12:55:08;;;;;;;9.40;5.20;;;;;;;14.94;49.03;99146.78;7788939;18;20010;-70
2023/04/13 12:57:34;;;;;;;5.45;5.03;;;;;;;14.46;47.22;99035.06;7837043;18;20159;-70
2023/04/13 13:00:01;;;;;;;5.65;5.10;;;;;;;14.35;46.73;99000.94;7790239;18;21836;-69
2023/04/13 13:02:31;;;;;;;5.30;5.03;;;;;;;14.14;46.78;99014.38;7838420;18;20560;-70
2023/04/13 13:04:57;;;;;;;5.47;5.18;;;;;;;14.46;48.59;99190.81;7788169;18;20002;-70
2023/04/13 13:07:24;;;;;;;5.22;4.93;;;;;;;14.65;47.97;99170.63;7790333;18;20005;-69
2023/04/13 13:09:51;;;;;;;5.30;4.90;;;;;;;14.52;47.24;99110.22;7747602;18;19990;-70
2023/04/13 13:12:17;;;;;;;5.93;5.53;;;;;;;14.60;46.48;99134.13;7790854;18;20062;-70
2023/04/13 13:14:44;;;;;;;5.30;4.80;;;;;;;13.83;47.13;99096.34;7790171;18;20008;-70
2023/04/13 13:17:10;;;;;;;5.10;4.80;;;;;;;14.46;48.60;99246.25;7790737;18;20020;-72
2023/04/13 13:19:37;;;;;;;4.90;4.70;;;;;;;14.43;46.17;99105.78;7787559;18;20062;-70
2023/04/13 13:22:03;;;;;;;5.03;4.82;;;;;;;14.21;46.86;99150.00;7788640;18;20288;-72
2023/04/13 13:24:30;;;;;;;5.32;5.03;;;;;;;13.74;46.56;99055.00;7787949;18;20095;-70
2023/04/13 13:26:57;;;;;;;4.85;4.65;;;;;;;13.96;47.95;99176.00;7787666;18;20350;-70
2023/04/13 13:29:29;;;;;;;5.28;4.88;;;;;;;14.65;46.94;99255.13;7788767;18;20036;-71
2023/04/13 13:31:56;;;;;;;5.32;5.03;;;;;;;14.47;46.13;99176.66;7749220;18;19998;-71
2023/04/13 13:34:22;;;;;;;5.75;4.88;;;;;;;14.42;46.57;99202.63;7789412;18;20660;-71
2023/04/13 13:36:48;;;;;;;5.05;4.80;;;;;;;14.55;46.35;99186.47;7788093;18;20011;-72
2023/04/13 13:39:17;;;;;;;5.32;4.90;;;;;;;14.55;46.18;99199.66;7789587;18;20006;-71
2023/04/13 13:41:43;;;;;;;6.78;5.10;;;;;;;14.37;45.95;99189.00;7748362;18;20005;-71
2023/04/13 13:44:12;;;;;;;5.40;5.00;;;;;;;14.73;46.90;99274.59;7789110;18;19993;-71
2023/04/13 13:46:38;;;;;;;5.10;4.80;;;;;;;14.11;46.80;99157.09;7789511;18;20005;-71
2023/04/13 13:49:05;;;;;;;7.82;5.22;;;;;;;13.69;47.78;99176.69;7747049;18;20588;-71
2023/04/13 13:51:32;;;;;;;6.15;5.07;;;;;;;13.39;48.59;99266.38;7747261;18;20469;-72
2023/04/13 13:53:58;;;;;;;4.85;4.65;;;;;;;13.89;47.66;99240.84;7788844;18;20026;-71
2023/04/13 13:56:25;;;;;;;5.00;4.60;;;;;;;13.75;46.92;99177.94;7747941;18;20068;-71
2023/04/13 13:58:51;;;;;;;5.05;4.75;;;;;;;13.92;45.76;99156.16;7789162;18;20074;-70
2023/04/13 14:01:17;;;;;;;7.65;5.18;;;;;;;14.00;46.37;99181.84;7789276;18;20008;-70
2023/04/13 14:03:44;;;;;;;11.07;5.00;;;;;;;13.40;46.43;99110.78;7787961;18;19994;-70
2023/04/13 14:06:11;;;;;;;6.97;4.75;;;;;;;13.05;48.14;99183.19;7790808;18;20014;-70
2023/04/13 14:08:37;;;;;;;4.90;4.68;;;;;;;13.65;47.68;99251.75;7789111;18;20327;-70
2023/04/13 14:11:04;;;;;;;6.90;4.90;;;;;;;12.48;46.90;99058.25;7789560;18;19994;-71
2023/04/13 14:13:30;;;;;;;5.15;4.50;;;;;;;13.64;45.88;99184.19;7747236;18;20004;-71
2023/04/13 14:15:57;;;;;;;4.90;4.70;;;;;;;13.78;46.56;99262.03;7789320;18;20782;-71
2023/04/13 14:18:23;;;;;;;4.88;4.68;;;;;;;13.68;48.18;99296.28;7787997;18;20015;-70
2023/04/13 14:20:50;;;;;;;5.88;4.90;;;;;;;13.52;47.70;99245.88;7789720;18;20001;-70
2023/04/13 14:23:17;;;;;;;5.32;4.82;;;;;;;12.49;47.67;99099.41;7790448;18;20042;-70
2023/04/13 14:25:43;;;;;;;5.25;4.82;;;;;;;13.27;48.69;99263.81;7791362;18;20006;-70
2023/04/13 14:28:10;;;;;;;5.35;4.88;;;;;;;13.04;48.44;99230.72;7788717;18;19997;-70
2023/04/13 14:30:38;;;;;;;5.70;5.20;;;;;;;13.18;50.53;99336.53;7791199;18;19998;-70
2023/04/13 14:33:05;;;;;;;4.97;4.68;;;;;;;13.11;50.16;99359.13;7790914;18;20816;-70
2023/04/13 14:35:32;;;;;;;6.15;5.63;;;;;;;13.09;50.67;99394.44;7791971;18;20002;-72
2023/04/13 14:37:59;;;;;;;5.30;5.00;;;;;;;13.39;50.56;99375.25;7792061;18;20006;-72
2023/04/13 14:40:26;;;;;;;4.97;4.68;;;;;;;12.96;50.26;99318.25;7793269;18;20022;-72
2023/04/13 14:42:52;;;;;;;5.30;4.80;;;;;;;13.15;50.60;99370.25;7751573;18;20069;-72
2023/04/13 14:45:19;;;;;;;10.77;5.47;;;;;;;13.59;48.92;99399.06;7793591;18;20698;-71
2023/04/13 14:47:46;;;;;;;6.22;4.95;;;;;;;12.72;46.53;99131.63;7791077;18;19998;-72
2023/04/13 14:50:13;;;;;;;5.75;4.93;;;;;;;14.12;46.59;99339.00;7790997;18;20689;-71
2023/04/13 14:52:42;;;;;;;4.97;4.68;;;;;;;13.99;45.98;99259.28;7749211;18;20009;-71
2023/04/13 14:55:09;;;;;;;5.88;4.82;;;;;;;13.79;46.24;99266.38;7791422;18;20023;-72
2023/04/13 14:57:37;;;;;;;4.90;4.70;;;;;;;13.37;47.72;99258.63;7750183;18;20285;-71
2023/04/13 15:00:16;;;;;;;5.90;5.03;;;;;;;12.71;48.78;99244.00;7790070;18;20071;-72
2023/04/13 15:02:43;;;;;;;4.95;4.75;;;;;;;13.18;49.19;99359.44;7788811;18;19994;-71